sensor_id;sensor_type;location;lat;lon;timestamp;pressure;altitude;pressure_sealevel;temperature;humidity
29935;BME280;19905;53.370;-6.314;2023-03-31T00:01:35;98199.69;;;9.08;100.00
29935;BME280;19905;53.370;-6.314;2023-03-31T00:04:08;98190.97;;;9.07;100.00
29935;BME280;19905;53.370;-6.314;2023-03-31T00:06:41;98188.59;;;9.21;100.00
29935;BME280;19905;53.370;-6.314;2023-03-31T00:09:12;98182.38;;;9.13;100.00
29935;BME280;19905;53.370;-6.314;2023-03-31T00:11:43;98184.69;;;9.08;100.00
29935;BME280;19905;53.370;-6.314;2023-03-31T00:14:12;98186.28;;;9.26;100.00
29935;BME280;19905;53.370;-6.314;2023-03-31T00:16:43;98183.53;;;9.11;100.00
29935;BME280;19905;53.370;-6.314;2023-03-31T00:19:13;98175.47;;;9.12;100.00
29935;BME280;19905;53.370;-6.314;2023-03-31T00:21:47;98168.72;;;9.10;100.00
29935;BME280;19905;53.370;-6.314;2023-03-31T00:24:17;98176.28;;;9.21;100.00
29935;BME280;19905;53.370;-6.314;2023-03-31T00:26:46;98172.16;;;9.10;100.00
29935;BME280;19905;53.370;-6.314;2023-03-31T00:29:14;98160.69;;;9.03;100.00
29935;BME280;19905;53.370;-6.314;2023-03-31T00:31:44;98165.78;;;9.05;100.00
29935;BME280;19905;53.370;-6.314;2023-03-31T00:34:13;98162.84;;;9.00;100.00
29935;BME280;19905;53.370;-6.314;2023-03-31T00:36:42;98155.75;;;9.00;100.00
29935;BME280;19905;53.370;-6.314;2023-03-31T00:39:14;98142.38;;;9.10;100.00
29935;BME280;19905;53.370;-6.314;2023-03-31T00:41:44;98150.97;;;9.04;100.00
29935;BME280;19905;53.370;-6.314;2023-03-31T00:44:14;98149.81;;;9.06;100.00
29935;BME280;19905;53.370;-6.314;2023-03-31T00:46:51;98145.56;;;8.97;100.00
29935;BME280;19905;53.370;-6.314;2023-03-31T00:49:25;98142.91;;;9.05;100.00
29935;BME280;19905;53.370;-6.314;2023-03-31T00:51:58;98144.91;;;8.95;100.00
29935;BME280;19905;53.370;-6.314;2023-03-31T00:54:31;98146.41;;;8.89;100.00
29935;BME280;19905;53.370;-6.314;2023-03-31T00:57:03;98144.91;;;8.95;100.00
29935;BME280;19905;53.370;-6.314;2023-03-31T00:59:36;98142.09;;;8.97;100.00
29935;BME280;19905;53.370;-6.314;2023-03-31T01:02:08;98151.19;;;8.94;100.00
29935;BME280;19905;53.370;-6.314;2023-03-31T01:04:40;98150.00;;;8.97;100.00
29935;BME280;19905;53.370;-6.314;2023-03-31T01:07:17;98145.59;;;8.89;100.00
29935;BME280;19905;53.370;-6.314;2023-03-31T01:09:50;98138.03;;;8.86;100.00
29935;BME280;19905;53.370;-6.314;2023-03-31T01:12:21;98137.34;;;8.92;100.00
29935;BME280;19905;53.370;-6.314;2023-03-31T01:14:51;98135.53;;;8.93;100.00
29935;BME280;19905;53.370;-6.314;2023-03-31T01:17:22;98127.31;;;8.96;100.00
29935;BME280;19905;53.370;-6.314;2023-03-31T01:20:01;98131.44;;;8.98;100.00
29935;BME280;19905;53.370;-6.314;2023-03-31T01:22:56;98121.41;;;8.94;100.00
29935;BME280;19905;53.370;-6.314;2023-03-31T01:28:44;98111.03;;;8.92;100.00
29935;BME280;19905;53.370;-6.314;2023-03-31T01:31:44;98114.78;;;8.98;100.00
29935;BME280;19905;53.370;-6.314;2023-03-31T01:37:56;98108.69;;;8.97;100.00
29935;BME280;19905;53.370;-6.314;2023-03-31T01:41:02;98103.13;;;8.92;100.00
29935;BME280;19905;53.370;-6.314;2023-03-31T01:43:43;98104.31;;;8.89;100.00
29935;BME280;19905;53.370;-6.314;2023-03-31T01:46:20;98103.59;;;8.96;100.00
29935;BME280;19905;53.370;-6.314;2023-03-31T01:48:58;98104.59;;;8.95;100.00
29935;BME280;19905;53.370;-6.314;2023-03-31T01:51:32;98098.16;;;8.97;100.00
29935;BME280;19905;53.370;-6.314;2023-03-31T01:54:07;98097.34;;;8.97;100.00
29935;BME280;19905;53.370;-6.314;2023-03-31T01:56:44;98103.91;;;9.01;100.00
29935;BME280;19905;53.370;-6.314;2023-03-31T01:59:18;98099.47;;;9.01;100.00
29935;BME280;19905;53.370;-6.314;2023-03-31T02:01:56;98097.19;;;8.98;100.00
29935;BME280;19905;53.370;-6.314;2023-03-31T02:04:30;98097.31;;;9.05;100.00
29935;BME280;19905;53.370;-6.314;2023-03-31T02:07:03;98101.28;;;9.01;100.00
29935;BME280;19905;53.370;-6.314;2023-03-31T02:09:38;98099.97;;;8.97;100.00
29935;BME280;19905;53.370;-6.314;2023-03-31T02:12:12;98099.47;;;9.01;100.00
29935;BME280;19905;53.370;-6.314;2023-03-31T02:14:44;98097.50;;;9.03;100.00
29935;BME280;19905;53.370;-6.314;2023-03-31T02:17:17;98098.34;;;8.96;100.00
29935;BME280;19905;53.370;-6.314;2023-03-31T02:19:49;98091.06;;;9.06;100.00
29935;BME280;19905;53.370;-6.314;2023-03-31T02:22:21;98088.09;;;9.09;100.00
29935;BME280;19905;53.370;-6.314;2023-03-31T02:24:52;98096.50;;;9.04;100.00
29935;BME280;19905;53.370;-6.314;2023-03-31T02:27:25;98083.66;;;9.01;100.00
29935;BME280;19905;53.370;-6.314;2023-03-31T02:29:55;98087.13;;;9.02;100.00
29935;BME280;19905;53.370;-6.314;2023-03-31T02:32:29;98087.78;;;9.04;100.00
29935;BME280;19905;53.370;-6.314;2023-03-31T02:34:59;98084.47;;;9.02;100.00
29935;BME280;19905;53.370;-6.314;2023-03-31T02:37:29;98091.75;;;9.00;100.00
29935;BME280;19905;53.370;-6.314;2023-03-31T02:40:00;98089.75;;;9.02;100.00
29935;BME280;19905;53.370;-6.314;2023-03-31T02:42:32;98085.78;;;9.06;100.00
29935;BME280;19905;53.370;-6.314;2023-03-31T02:45:02;98083.97;;;9.06;100.00
29935;BME280;19905;53.370;-6.314;2023-03-31T02:47:31;98092.38;;;9.02;100.00
29935;BME280;19905;53.370;-6.314;2023-03-31T02:50:02;98088.94;;;9.01;100.00
29935;BME280;19905;53.370;-6.314;2023-03-31T02:52:51;98083.84;;;9.00;100.00
29935;BME280;19905;53.370;-6.314;2023-03-31T02:55:48;98087.31;;;9.00;100.00
29935;BME280;19905;53.370;-6.314;2023-03-31T02:58:48;98089.75;;;9.02;100.00
29935;BME280;19905;53.370;-6.314;2023-03-31T03:01:34;98088.59;;;9.04;100.00
29935;BME280;19905;53.370;-6.314;2023-03-31T03:04:19;98083.53;;;9.03;100.00
29935;BME280;19905;53.370;-6.314;2023-03-31T03:06:57;98088.59;;;9.04;100.00
29935;BME280;19905;53.370;-6.314;2023-03-31T03:09:39;98088.31;;;8.99;100.00
29935;BME280;19905;53.370;-6.314;2023-03-31T03:12:16;98090.13;;;8.99;100.00
29935;BME280;19905;53.370;-6.314;2023-03-31T03:14:52;98090.38;;;9.12;100.00
29935;BME280;19905;53.370;-6.314;2023-03-31T03:17:25;98089.09;;;9.08;100.00
29935;BME280;19905;53.370;-6.314;2023-03-31T03:19:59;98094.50;;;9.06;100.00
29935;BME280;19905;53.370;-6.314;2023-03-31T03:22:28;98095.69;;;9.04;100.00
29935;BME280;19905;53.370;-6.314;2023-03-31T03:24:57;98090.41;;;9.04;100.00
29935;BME280;19905;53.370;-6.314;2023-03-31T03:27:26;98087.47;;;8.99;100.00
29935;BME280;19905;53.370;-6.314;2023-03-31T03:29:56;98096.16;;;9.07;100.00
29935;BME280;19905;53.370;-6.314;2023-03-31T03:32:24;98091.06;;;9.06;100.00
29935;BME280;19905;53.370;-6.314;2023-03-31T03:34:53;98093.34;;;9.09;100.00
29935;BME280;19905;53.370;-6.314;2023-03-31T03:37:22;98085.97;;;9.04;100.00
29935;BME280;19905;53.370;-6.314;2023-03-31T03:39:50;98091.22;;;9.04;100.00
29935;BME280;19905;53.370;-6.314;2023-03-31T03:42:19;98089.41;;;9.05;100.00
29935;BME280;19905;53.370;-6.314;2023-03-31T03:44:48;98095.31;;;9.07;100.00
29935;BME280;19905;53.370;-6.314;2023-03-31T03:47:19;98092.88;;;9.05;100.00
29935;BME280;19905;53.370;-6.314;2023-03-31T03:49:48;98097.31;;;9.05;100.00
29935;BME280;19905;53.370;-6.314;2023-03-31T03:52:17;98097.66;;;9.02;100.00
29935;BME280;19905;53.370;-6.314;2023-03-31T03:54:46;98098.31;;;9.04;100.00
29935;BME280;19905;53.370;-6.314;2023-03-31T03:57:14;98100.28;;;9.02;100.00
29935;BME280;19905;53.370;-6.314;2023-03-31T03:59:43;98101.59;;;9.06;100.00
29935;BME280;19905;53.370;-6.314;2023-03-31T04:02:12;98101.78;;;9.04;100.00
29935;BME280;19905;53.370;-6.314;2023-03-31T04:04:42;98106.03;;;9.05;100.00
29935;BME280;19905;53.370;-6.314;2023-03-31T04:07:11;98106.38;;;9.02;100.00
29935;BME280;19905;53.370;-6.314;2023-03-31T04:09:39;98104.22;;;9.06;100.00
29935;BME280;19905;53.370;-6.314;2023-03-31T04:12:08;98107.34;;;9.09;100.00
29935;BME280;19905;53.370;-6.314;2023-03-31T04:14:37;98116.06;;;9.10;100.00
29935;BME280;19905;53.370;-6.314;2023-03-31T04:17:05;98109.94;;;9.18;100.00
29935;BME280;19905;53.370;-6.314;2023-03-31T04:19:36;98118.16;;;9.14;100.00
29935;BME280;19905;53.370;-6.314;2023-03-31T04:22:10;98121.28;;;9.18;100.00
29935;BME280;19905;53.370;-6.314;2023-03-31T04:24:42;98114.69;;;9.22;100.00
29935;BME280;19905;53.370;-6.314;2023-03-31T04:27:13;98123.06;;;9.26;100.00
29935;BME280;19905;53.370;-6.314;2023-03-31T04:29:43;98127.03;;;9.22;100.00
29935;BME280;19905;53.370;-6.314;2023-03-31T04:32:21;98121.94;;;9.20;100.00
29935;BME280;19905;53.370;-6.314;2023-03-31T04:34:50;98128.69;;;9.23;100.00
29935;BME280;19905;53.370;-6.314;2023-03-31T04:37:30;98127.69;;;9.24;100.00
29935;BME280;19905;53.370;-6.314;2023-03-31T04:40:01;98132.91;;;9.32;100.00
29935;BME280;19905;53.370;-6.314;2023-03-31T04:42:35;98139.00;;;9.32;100.00
29935;BME280;19905;53.370;-6.314;2023-03-31T04:45:05;98134.56;;;9.33;100.00
29935;BME280;19905;53.370;-6.314;2023-03-31T04:47:34;98144.59;;;9.29;100.00
29935;BME280;19905;53.370;-6.314;2023-03-31T04:50:04;98148.06;;;9.30;100.00
29935;BME280;19905;53.370;-6.314;2023-03-31T04:52:34;98143.63;;;9.30;100.00
29935;BME280;19905;53.370;-6.314;2023-03-31T04:55:03;98147.09;;;9.31;100.00
29935;BME280;19905;53.370;-6.314;2023-03-31T04:57:32;98156.13;;;9.28;100.00
29935;BME280;19905;53.370;-6.314;2023-03-31T05:00:01;98156.00;;;9.22;100.00
29935;BME280;19905;53.370;-6.314;2023-03-31T05:02:33;98154.69;;;9.26;100.00
29935;BME280;19905;53.370;-6.314;2023-03-31T05:05:02;98161.75;;;9.25;100.00
29935;BME280;19905;53.370;-6.314;2023-03-31T05:07:33;98159.47;;;9.22;100.00
29935;BME280;19905;53.370;-6.314;2023-03-31T05:10:02;98161.09;;;9.23;100.00
29935;BME280;19905;53.370;-6.314;2023-03-31T05:12:33;98160.63;;;9.20;100.00
29935;BME280;19905;53.370;-6.314;2023-03-31T05:15:04;98161.78;;;9.17;100.00
29935;BME280;19905;53.370;-6.314;2023-03-31T05:17:34;98168.22;;;9.14;100.00
29935;BME280;19905;53.370;-6.314;2023-03-31T05:20:05;98172.34;;;9.17;100.00
29935;BME280;19905;53.370;-6.314;2023-03-31T05:22:37;98168.50;;;9.20;100.00
29935;BME280;19905;53.370;-6.314;2023-03-31T05:25:10;98176.28;;;9.21;100.00
29935;BME280;19905;53.370;-6.314;2023-03-31T05:27:40;98176.41;;;9.20;100.00
29935;BME280;19905;53.370;-6.314;2023-03-31T05:30:09;98184.63;;;9.25;100.00
29935;BME280;19905;53.370;-6.314;2023-03-31T05:32:38;98188.94;;;9.26;100.00
29935;BME280;19905;53.370;-6.314;2023-03-31T05:35:08;98191.56;;;9.26;100.00
29935;BME280;19905;53.370;-6.314;2023-03-31T05:37:38;98194.00;;;9.27;100.00
29935;BME280;19905;53.370;-6.314;2023-03-31T05:40:08;98195.16;;;9.25;100.00
29935;BME280;19905;53.370;-6.314;2023-03-31T05:42:37;98202.09;;;9.26;100.00
29935;BME280;19905;53.370;-6.314;2023-03-31T05:45:08;98205.56;;;9.26;100.00
29935;BME280;19905;53.370;-6.314;2023-03-31T05:47:38;98209.81;;;9.27;100.00
29935;BME280;19905;53.370;-6.314;2023-03-31T05:50:08;98210.97;;;9.25;100.00
29935;BME280;19905;53.370;-6.314;2023-03-31T05:52:41;98228.44;;;9.26;100.00
29935;BME280;19905;53.370;-6.314;2023-03-31T05:55:11;98236.16;;;9.27;100.00
29935;BME280;19905;53.370;-6.314;2023-03-31T05:57:39;98237.97;;;9.27;100.00
29935;BME280;19905;53.370;-6.314;2023-03-31T06:00:09;98244.69;;;9.29;100.00
29935;BME280;19905;53.370;-6.314;2023-03-31T06:02:38;98249.81;;;9.31;100.00
29935;BME280;19905;53.370;-6.314;2023-03-31T06:05:08;98242.25;;;9.28;100.00
29935;BME280;19905;53.370;-6.314;2023-03-31T06:07:36;98253.91;;;9.33;100.00
29935;BME280;19905;53.370;-6.314;2023-03-31T06:10:08;98255.56;;;9.34;100.00
29935;BME280;19905;53.370;-6.314;2023-03-31T06:12:36;98253.91;;;9.33;100.00
29935;BME280;19905;53.370;-6.314;2023-03-31T06:15:06;98250.47;;;9.33;100.00
29935;BME280;19905;53.370;-6.314;2023-03-31T06:17:35;98258.53;;;9.39;100.00
29935;BME280;19905;53.370;-6.314;2023-03-31T06:20:05;98269.56;;;9.35;100.00
29935;BME280;19905;53.370;-6.314;2023-03-31T06:22:53;98277.13;;;9.38;100.00
29935;BME280;19905;53.370;-6.314;2023-03-31T06:25:23;98280.94;;;9.35;100.00
29935;BME280;19905;53.370;-6.314;2023-03-31T06:27:53;98284.69;;;9.41;100.00
29935;BME280;19905;53.370;-6.314;2023-03-31T06:30:22;98288.78;;;9.43;100.00
29935;BME280;19905;53.370;-6.314;2023-03-31T06:32:51;98287.47;;;9.48;100.00
29935;BME280;19905;53.370;-6.314;2023-03-31T06:35:19;98290.09;;;9.48;100.00
29935;BME280;19905;53.370;-6.314;2023-03-31T06:37:48;98295.03;;;9.51;100.00
29935;BME280;19905;53.370;-6.314;2023-03-31T06:40:17;98298.66;;;9.50;100.00
29935;BME280;19905;53.370;-6.314;2023-03-31T06:42:47;98304.75;;;9.50;100.00
29935;BME280;19905;53.370;-6.314;2023-03-31T06:45:16;98310.84;;;9.51;100.00
29935;BME280;19905;53.370;-6.314;2023-03-31T06:47:45;98311.47;;;9.53;100.00
29935;BME280;19905;53.370;-6.314;2023-03-31T06:50:13;98316.94;;;9.51;100.00
29935;BME280;19905;53.370;-6.314;2023-03-31T06:52:42;98319.94;;;9.40;100.00
29935;BME280;19905;53.370;-6.314;2023-03-31T06:55:11;98326.66;;;9.42;100.00
29935;BME280;19905;53.370;-6.314;2023-03-31T06:57:41;98324.34;;;9.48;100.00
29935;BME280;19905;53.370;-6.314;2023-03-31T07:00:13;98332.56;;;9.53;100.00
29935;BME280;19905;53.370;-6.314;2023-03-31T07:02:42;98345.75;;;9.53;100.00
29935;BME280;19905;53.370;-6.314;2023-03-31T07:05:11;98344.78;;;9.54;100.00
29935;BME280;19905;53.370;-6.314;2023-03-31T07:07:43;98349.22;;;9.53;100.00
29935;BME280;19905;53.370;-6.314;2023-03-31T07:10:12;98346.75;;;9.52;100.00
29935;BME280;19905;53.370;-6.314;2023-03-31T07:12:40;98358.09;;;9.52;100.00
29935;BME280;19905;53.370;-6.314;2023-03-31T07:15:11;98353.81;;;9.51;100.00
29935;BME280;19905;53.370;-6.314;2023-03-31T07:17:39;98367.31;;;9.56;100.00
29935;BME280;19905;53.370;-6.314;2023-03-31T07:20:10;98368.50;;;9.54;100.00
29935;BME280;19905;53.370;-6.314;2023-03-31T07:22:41;98377.72;;;9.50;100.00
29935;BME280;19905;53.370;-6.314;2023-03-31T07:25:11;98383.31;;;9.55;100.00
29935;BME280;19905;53.370;-6.314;2023-03-31T07:27:40;98392.34;;;9.52;100.00
29935;BME280;19905;53.370;-6.314;2023-03-31T07:30:13;98401.06;;;9.61;100.00
29935;BME280;19905;53.370;-6.314;2023-03-31T07:32:42;98407.34;;;9.68;100.00
29935;BME280;19905;53.370;-6.314;2023-03-31T07:35:11;98410.31;;;9.65;100.00
29935;BME280;19905;53.370;-6.314;2023-03-31T07:37:41;98409.31;;;9.66;100.00
29935;BME280;19905;53.370;-6.314;2023-03-31T07:40:13;98407.97;;;9.70;100.00
29935;BME280;19905;53.370;-6.314;2023-03-31T07:42:43;98412.09;;;9.81;100.00
29935;BME280;19905;53.370;-6.314;2023-03-31T07:45:18;98410.91;;;9.83;100.00
29935;BME280;19905;53.370;-6.314;2023-03-31T07:47:47;98418.84;;;9.83;100.00
29935;BME280;19905;53.370;-6.314;2023-03-31T07:50:17;98420.97;;;9.80;100.00
29935;BME280;19905;53.370;-6.314;2023-03-31T07:52:46;98424.59;;;9.87;100.00
29935;BME280;19905;53.370;-6.314;2023-03-31T07:55:15;98429.69;;;9.80;100.00
29935;BME280;19905;53.370;-6.314;2023-03-31T07:57:46;98441.22;;;9.87;100.00
29935;BME280;19905;53.370;-6.314;2023-03-31T08:00:17;98437.97;;;9.85;100.00
29935;BME280;19905;53.370;-6.314;2023-03-31T08:02:47;98442.06;;;9.80;100.00
29935;BME280;19905;53.370;-6.314;2023-03-31T08:05:18;98449.47;;;9.84;100.00
29935;BME280;19905;53.370;-6.314;2023-03-31T08:07:48;98445.50;;;9.88;100.00
29935;BME280;19905;53.370;-6.314;2023-03-31T08:10:20;98454.72;;;10.01;100.00
29935;BME280;19905;53.370;-6.314;2023-03-31T08:12:49;98460.28;;;10.14;100.00
29935;BME280;19905;53.370;-6.314;2023-03-31T08:15:19;98464.25;;;10.18;100.00
29935;BME280;19905;53.370;-6.314;2023-03-31T08:17:48;98473.31;;;10.15;100.00
29935;BME280;19905;53.370;-6.314;2023-03-31T08:20:17;98469.88;;;10.07;100.00
29935;BME280;19905;53.370;-6.314;2023-03-31T08:22:46;98477.28;;;10.03;100.00
29935;BME280;19905;53.370;-6.314;2023-03-31T08:25:15;98479.09;;;10.03;100.00
29935;BME280;19905;53.370;-6.314;2023-03-31T08:27:44;98477.66;;;9.92;100.00
29935;BME280;19905;53.370;-6.314;2023-03-31T08:30:16;98485.88;;;9.97;100.00
29935;BME280;19905;53.370;-6.314;2023-03-31T08:32:46;98489.50;;;9.96;100.00
29935;BME280;19905;53.370;-6.314;2023-03-31T08:35:15;98500.06;;;9.88;100.00
29935;BME280;19905;53.370;-6.314;2023-03-31T08:37:44;98502.03;;;9.94;100.00
29935;BME280;19905;53.370;-6.314;2023-03-31T08:40:18;98502.53;;;9.98;100.00
29935;BME280;19905;53.370;-6.314;2023-03-31T08:42:50;98502.50;;;10.06;100.00
29935;BME280;19905;53.370;-6.314;2023-03-31T08:45:22;98517.53;;;9.97;100.00
29935;BME280;19905;53.370;-6.314;2023-03-31T08:47:58;98511.94;;;10.00;100.00
29935;BME280;19905;53.370;-6.314;2023-03-31T08:50:32;98518.84;;;10.01;100.00
29935;BME280;19905;53.370;-6.314;2023-03-31T08:53:05;98520.66;;;10.01;100.00
29935;BME280;19905;53.370;-6.314;2023-03-31T08:55:47;98516.53;;;10.06;100.00
29935;BME280;19905;53.370;-6.314;2023-03-31T08:58:27;98540.44;;;10.05;100.00
29935;BME280;19905;53.370;-6.314;2023-03-31T09:01:03;98537.47;;;9.91;100.00
29935;BME280;19905;53.370;-6.314;2023-03-31T09:03:42;98536.81;;;9.98;100.00
29935;BME280;19905;53.370;-6.314;2023-03-31T09:06:17;98541.25;;;10.05;100.00
29935;BME280;19905;53.370;-6.314;2023-03-31T09:08:51;98543.06;;;10.13;100.00
29935;BME280;19905;53.370;-6.314;2023-03-31T09:11:28;98547.16;;;10.15;100.00
29935;BME280;19905;53.370;-6.314;2023-03-31T09:14:14;98537.28;;;10.26;100.00
29935;BME280;19905;53.370;-6.314;2023-03-31T09:16:51;98547.84;;;10.26;100.00
29935;BME280;19905;53.370;-6.314;2023-03-31T09:19:32;98547.31;;;10.38;100.00
29935;BME280;19905;53.370;-6.314;2023-03-31T09:22:05;98542.53;;;10.42;100.00
29935;BME280;19905;53.370;-6.314;2023-03-31T09:24:47;98550.28;;;10.43;100.00
29935;BME280;19905;53.370;-6.314;2023-03-31T09:27:20;98556.72;;;10.41;100.00
29935;BME280;19905;53.370;-6.314;2023-03-31T09:29:52;98556.88;;;10.39;100.00
29935;BME280;19905;53.370;-6.314;2023-03-31T09:32:24;98575.84;;;10.35;100.00
29935;BME280;19905;53.370;-6.314;2023-03-31T09:34:59;98567.94;;;10.43;100.00
29935;BME280;19905;53.370;-6.314;2023-03-31T09:37:30;98585.94;;;10.31;100.00
29935;BME280;19905;53.370;-6.314;2023-03-31T09:40:03;98582.13;;;10.34;100.00
29935;BME280;19905;53.370;-6.314;2023-03-31T09:42:34;98592.00;;;10.40;100.00
29935;BME280;19905;53.370;-6.314;2023-03-31T09:45:05;98592.19;;;10.38;100.00
29935;BME280;19905;53.370;-6.314;2023-03-31T09:47:36;98597.78;;;10.35;100.00
29935;BME280;19905;53.370;-6.314;2023-03-31T09:50:09;98602.91;;;10.37;100.00
29935;BME280;19905;53.370;-6.314;2023-03-31T09:52:40;98611.97;;;10.42;100.00
29935;BME280;19905;53.370;-6.314;2023-03-31T09:55:19;98612.94;;;10.58;100.00
29935;BME280;19905;53.370;-6.314;2023-03-31T09:58:06;98613.28;;;10.63;100.00
29935;BME280;19905;53.370;-6.314;2023-03-31T10:00:35;98626.63;;;10.61;100.00
29935;BME280;19905;53.370;-6.314;2023-03-31T10:03:04;98625.81;;;10.53;100.00
29935;BME280;19905;53.370;-6.314;2023-03-31T10:05:37;98630.75;;;10.56;100.00
29935;BME280;19905;53.370;-6.314;2023-03-31T10:08:26;98637.69;;;10.57;100.00
29935;BME280;19905;53.370;-6.314;2023-03-31T10:11:06;98637.88;;;10.47;100.00
29935;BME280;19905;53.370;-6.314;2023-03-31T10:13:44;98640.00;;;10.52;100.00
29935;BME280;19905;53.370;-6.314;2023-03-31T10:16:20;98640.50;;;10.47;100.00
29935;BME280;19905;53.370;-6.314;2023-03-31T10:18:49;98645.28;;;10.52;100.00
29935;BME280;19905;53.370;-6.314;2023-03-31T10:21:23;98653.19;;;10.43;100.00
29935;BME280;19905;53.370;-6.314;2023-03-31T10:23:53;98649.56;;;10.53;100.00
29935;BME280;19905;53.370;-6.314;2023-03-31T10:26:25;98657.16;;;10.64;100.00
29935;BME280;19905;53.370;-6.314;2023-03-31T10:28:54;98656.34;;;10.63;100.00
29935;BME280;19905;53.370;-6.314;2023-03-31T10:31:25;98666.38;;;10.68;100.00
29935;BME280;19905;53.370;-6.314;2023-03-31T10:33:55;98663.44;;;10.63;100.00
29935;BME280;19905;53.370;-6.314;2023-03-31T10:36:28;98668.38;;;10.58;100.00
29935;BME280;19905;53.370;-6.314;2023-03-31T10:38:58;98672.69;;;10.51;100.00
29935;BME280;19905;53.370;-6.314;2023-03-31T10:41:28;98675.31;;;10.51;100.00
29935;BME280;19905;53.370;-6.314;2023-03-31T10:43:59;98677.13;;;10.58;100.00
29935;BME280;19905;53.370;-6.314;2023-03-31T10:46:43;98686.34;;;10.79;100.00
29935;BME280;19905;53.370;-6.314;2023-03-31T10:49:15;98689.09;;;10.93;100.00
29935;BME280;19905;53.370;-6.314;2023-03-31T10:51:54;98686.25;;;11.03;100.00
29935;BME280;19905;53.370;-6.314;2023-03-31T10:54:24;98692.84;;;11.07;100.00
29935;BME280;19905;53.370;-6.314;2023-03-31T10:56:54;98698.03;;;10.92;100.00
29935;BME280;19905;53.370;-6.314;2023-03-31T10:59:37;98694.75;;;10.90;100.00
29935;BME280;19905;53.370;-6.314;2023-03-31T11:02:45;98701.66;;;10.83;100.00
29935;BME280;19905;53.370;-6.314;2023-03-31T11:05:22;98714.38;;;10.96;100.00
29935;BME280;19905;53.370;-6.314;2023-03-31T11:08:11;98711.88;;;10.94;100.00
29935;BME280;19905;53.370;-6.314;2023-03-31T11:11:07;98718.81;;;10.96;100.00
29935;BME280;19905;53.370;-6.314;2023-03-31T11:13:47;98721.63;;;10.94;100.00
29935;BME280;19905;53.370;-6.314;2023-03-31T11:16:23;98729.22;;;10.89;100.00
29935;BME280;19905;53.370;-6.314;2023-03-31T11:19:04;98721.81;;;10.84;100.00
29935;BME280;19905;53.370;-6.314;2023-03-31T11:21:48;98730.72;;;10.91;100.00
29935;BME280;19905;53.370;-6.314;2023-03-31T11:24:33;98734.84;;;10.86;100.00
29935;BME280;19905;53.370;-6.314;2023-03-31T11:27:22;98741.28;;;10.75;100.00
29935;BME280;19905;53.370;-6.314;2023-03-31T11:29:58;98746.25;;;10.70;100.00
29935;BME280;19905;53.370;-6.314;2023-03-31T11:32:46;98749.03;;;10.85;100.00
29935;BME280;19905;53.370;-6.314;2023-03-31T11:35:30;98746.88;;;10.88;100.00
29935;BME280;19905;53.370;-6.314;2023-03-31T11:38:17;98761.41;;;11.09;100.00
29935;BME280;19905;53.370;-6.314;2023-03-31T11:40:58;98770.84;;;10.95;100.00
29935;BME280;19905;53.370;-6.314;2023-03-31T11:43:32;98767.47;;;11.17;100.00
29935;BME280;19905;53.370;-6.314;2023-03-31T11:46:07;98774.22;;;11.36;100.00
29935;BME280;19905;53.370;-6.314;2023-03-31T11:48:43;98773.22;;;11.29;100.00
29935;BME280;19905;53.370;-6.314;2023-03-31T11:51:18;98780.34;;;11.29;100.00
29935;BME280;19905;53.370;-6.314;2023-03-31T11:53:50;98786.97;;;11.16;100.00
29935;BME280;19905;53.370;-6.314;2023-03-31T11:56:27;98784.50;;;11.23;100.00
29935;BME280;19905;53.370;-6.314;2023-03-31T11:58:59;98790.59;;;11.24;100.00
29935;BME280;19905;53.370;-6.314;2023-03-31T12:01:40;98794.38;;;11.29;100.00
29935;BME280;19905;53.370;-6.314;2023-03-31T12:04:20;98798.47;;;11.48;100.00
29935;BME280;19905;53.370;-6.314;2023-03-31T12:06:51;98801.72;;;11.58;100.00
29935;BME280;19905;53.370;-6.314;2023-03-31T12:09:33;98799.38;;;11.63;100.00
29935;BME280;19905;53.370;-6.314;2023-03-31T12:12:13;98794.09;;;11.63;100.00
29935;BME280;19905;53.370;-6.314;2023-03-31T12:14:48;98802.72;;;11.65;100.00
29935;BME280;19905;53.370;-6.314;2023-03-31T12:17:19;98811.47;;;11.66;100.00
29935;BME280;19905;53.370;-6.314;2023-03-31T12:19:52;98806.97;;;11.75;100.00
29935;BME280;19905;53.370;-6.314;2023-03-31T12:22:26;98816.06;;;11.72;100.00
29935;BME280;19905;53.370;-6.314;2023-03-31T12:24:57;98804.97;;;11.85;100.00
29935;BME280;19905;53.370;-6.314;2023-03-31T12:27:32;98804.63;;;11.88;100.00
29935;BME280;19905;53.370;-6.314;2023-03-31T12:30:07;98812.94;;;12.16;100.00
29935;BME280;19905;53.370;-6.314;2023-03-31T12:32:42;98801.84;;;12.12;100.00
29935;BME280;19905;53.370;-6.314;2023-03-31T12:35:20;98804.53;;;12.35;100.00
29935;BME280;19905;53.370;-6.314;2023-03-31T12:38:08;98805.91;;;12.54;100.00
29935;BME280;19905;53.370;-6.314;2023-03-31T12:40:48;98796.53;;;12.66;100.00
29935;BME280;19905;53.370;-6.314;2023-03-31T12:43:48;98794.59;;;12.83;100.00
29935;BME280;19905;53.370;-6.314;2023-03-31T12:46:35;98802.69;;;13.05;100.00
29935;BME280;19905;53.370;-6.314;2023-03-31T12:49:36;98810.28;;;13.08;100.00
29935;BME280;19905;53.370;-6.314;2023-03-31T12:52:11;98813.72;;;12.93;100.00
29935;BME280;19905;53.370;-6.314;2023-03-31T12:57:44;98820.78;;;12.78;100.00
29935;BME280;19905;53.370;-6.314;2023-03-31T13:00:25;98827.91;;;12.55;100.00
29935;BME280;19905;53.370;-6.314;2023-03-31T13:03:34;98830.94;;;12.52;100.00
29935;BME280;19905;53.370;-6.314;2023-03-31T13:06:05;98832.50;;;12.38;100.00
29935;BME280;19905;53.370;-6.314;2023-03-31T13:08:51;98837.53;;;12.25;100.00
29935;BME280;19905;53.370;-6.314;2023-03-31T13:11:22;98844.16;;;12.20;100.00
29935;BME280;19905;53.370;-6.314;2023-03-31T13:14:04;98848.88;;;12.02;100.00
29935;BME280;19905;53.370;-6.314;2023-03-31T13:16:35;98861.97;;;11.95;100.00
29935;BME280;19905;53.370;-6.314;2023-03-31T13:19:04;98867.31;;;11.87;100.00
29935;BME280;19905;53.370;-6.314;2023-03-31T13:21:51;98873.91;;;11.91;100.00
29935;BME280;19905;53.370;-6.314;2023-03-31T13:24:21;98877.84;;;11.95;100.00
29935;BME280;19905;53.370;-6.314;2023-03-31T13:26:52;98879.94;;;12.08;100.00
29935;BME280;19905;53.370;-6.314;2023-03-31T13:29:24;98881.06;;;12.22;100.00